Latest Coastal Weather Observations for St Helens

IDT60701

Issued at 9:52 am EDT Monday 23 October 2017 (issued every 10 minutes, with the page automatically refreshed every 10 minutes)

About coastal observations | Map of coastal stations | Coastal observations for TAS | Marine services | Other Formats
Station Details ID: 092120 Name: ST HELENS AERODROME Lat: -41.34 Lon: 148.28 Height: 48.0 m
Data from the previous 72 hours. | See also: Recent months at St Helens
Date/Time
EDT
Temp
°C
Wind Pressure Rain since
9am
mm
Weather Cloud Vis
km
Sea
Height
m
Swell
Dir  Spd
kts
Gust
kts
hPa Trend Height
m
Period
s
Dir
23/09:47am 17.5 NNW 4 7 1014.3 - 0.0 - Partly cloudy 2 - - - -
23/09:30am 16.3 NNW 3 6 1014.3 - 0.0 - Partly cloudy 2 - - - -
23/09:00am 15.9 E 1 5 1014.2 - 0.0 Smoke Mostly cloudy 0 - - - -
23/08:32am 14.5 CALM 0 3 1014.2 - 0.0 - Partly cloudy 1 - - - -
23/08:30am 14.1 SW 1 4 1014.2 - 0.0 - Partly cloudy 1 - - - -
23/08:09am 13.2 CALM 0 - 1014.0 - 0.0 - Partly cloudy 1 - - - -
23/08:00am 13.0 CALM 0 - 1013.9 - 0.0 - Partly cloudy 1 - - - -
23/07:30am 12.3 W 3 5 1013.5 - 0.0 - Partly cloudy 1 - - - -
23/07:27am 12.2 WNW 4 5 1013.5 - 0.0 - Partly cloudy 1 - - - -
23/07:00am 11.7 NW 6 8 1013.1 - 0.0 - Cloudy 1 - - - -
23/06:30am 11.8 NW 5 5 1012.8 - 0.0 - Cloudy 1 - - - -
23/06:00am 11.5 NNW 5 6 1012.4 - 0.0 - Cloudy 4 - - - -
23/05:30am 12.1 NW 6 7 1012.3 - 0.0 - Partly cloudy 2 - - - -
23/05:06am 12.4 NW 5 7 1012.3 - 0.0 - Partly cloudy 4 - - - -
23/05:00am 12.3 NW 6 7 1012.3 - 0.0 - Partly cloudy 4 - - - -
23/04:47am 12.3 NW 6 7 1012.2 - 0.0 - Partly cloudy 2 - - - -
23/04:30am 12.1 N 5 7 1012.3 - 0.0 - Partly cloudy 2 - - - -
23/04:00am 12.0 NW 6 8 1012.2 - 0.0 - Partly cloudy 2 - - - -
23/03:30am 11.8 NW 6 8 1012.2 - 0.0 - Partly cloudy 3 - - - -
23/03:24am 11.7 NW 5 7 1012.3 - 0.0 - Partly cloudy 5 - - - -
23/03:13am 11.8 NW 6 8 1012.4 - 0.0 - Partly cloudy 5 - - - -
23/03:06am 11.7 NW 6 8 1012.4 - 0.0 - Partly cloudy 5 - - - -
23/03:00am 11.8 NW 5 7 1012.4 - 0.0 - Cloudy 4 - - - -
23/02:55am 11.8 NW 5 7 1012.5 - 0.0 - Partly cloudy 4 - - - -
23/02:30am 11.8 NNW 6 6 1012.5 - 0.0 - Partly cloudy 2 - - - -
23/02:00am 11.6 NW 4 5 1012.6 - 0.0 - Cloudy 2 - - - -
23/01:30am 11.5 NNW 6 8 1012.9 - 0.0 - Partly cloudy 3 - - - -
23/01:00am 10.8 WSW 3 5 1013.0 - 0.0 - Cloudy 2 - - - -
23/12:30am 10.9 NW 3 5 1013.2 - 0.0 - Cloudy 3 - - - -
23/12:06am 10.7 NW 6 7 1013.0 - 0.0 - Partly cloudy 5 - - - -
23/12:02am 10.6 NW 6 7 1013.0 - 0.0 - Partly cloudy 6 - - - -
23/12:00am 10.5 NNW 6 7 1013.0 - 0.0 - Cloudy 7 - - - -
 
Date/Time
EDT
Temp
°C
Wind Pressure Rain since
9am
mm
Weather Cloud Vis
km
Sea
Height
m
Swell
Dir  Spd
kts
Gust
kts
hPa Trend Height
m
Period
s
Dir
22/11:30pm 10.3 NW 6 8 1013.3 - 0.0 - Partly cloudy 10 - - - -
22/11:00pm 10.4 WSW 2 5 1013.4 - 0.0 - - 10 - - - -
22/10:39pm 11.0 CALM 0 0 1013.3 - 0.0 - Partly cloudy 10 - - - -
22/10:30pm 11.1 SSW 1 4 1013.3 - 0.0 - Partly cloudy 10 - - - -
22/10:15pm 11.2 S 4 5 1013.2 - 0.0 - Cloudy 10 - - - -
22/10:00pm 11.1 SSW 4 6 1013.2 - 0.0 - Cloudy 10 - - - -
22/09:30pm 11.7 SSW 4 6 1013.2 - 0.0 - Cloudy 10 - - - -
22/09:20pm 11.8 SSW 5 7 1013.1 - 0.0 - Partly cloudy 10 - - - -
22/09:00pm 12.2 SSW 5 8 1012.7 - 0.0 - Mostly cloudy 10 - - - -
22/08:30pm 12.7 S 8 10 1012.7 - 0.0 - Partly cloudy 10 - - - -
22/08:18pm 12.4 S 7 9 1012.5 - 0.0 - Partly cloudy 10 - - - -
22/08:00pm 12.3 S 7 9 1012.3 - 0.0 - Partly cloudy 10 - - - -
22/07:30pm 12.9 S 6 9 1012.0 - 0.0 - Partly cloudy 10 - - - -
22/07:00pm 14.0 S 6 10 1011.7 - 0.0 - Partly cloudy 10 - - - -
22/06:30pm 14.7 S 7 10 1011.6 - 0.0 - Partly cloudy 10 - - - -
22/06:00pm 15.3 SE 5 9 1011.2 - 0.0 - Mostly cloudy 10 - - - -
22/05:30pm 15.4 E 5 8 1011.3 - 0.0 - Cloudy 10 - - - -
22/05:00pm 15.6 ENE 9 13 1011.3 - 0.0 - Cloudy 10 - - - -
22/04:30pm 15.9 ENE 9 13 1011.4 - 0.0 - Cloudy 10 - - - -
22/04:00pm 16.5 ENE 10 13 1011.6 - 0.0 - Partly cloudy 10 - - - -
22/03:30pm 16.4 NE 9 13 1011.7 - 0.0 - Cloudy 10 - - - -
22/03:00pm 16.6 NE 10 13 1011.7 - 0.0 - Mostly cloudy 10 - - - -
22/02:30pm 16.8 NE 10 14 1012.0 - 0.0 - Partly cloudy 10 - - - -
22/02:00pm 17.2 ENE 9 13 1012.2 - 0.0 - Partly cloudy 10 - - - -
22/01:30pm 17.1 E 8 13 1012.2 - 0.0 - Partly cloudy 10 - - - -
22/01:00pm 17.1 ENE 8 11 1012.3 - 0.0 - Partly cloudy 10 - - - -
22/12:30pm 17.6 E 9 13 1012.3 - 0.0 - - 10 - - - -
22/12:00pm 17.4 ENE 10 16 1012.2 - 0.0 - - 10 - - - -
22/11:30am 17.6 E 7 12 1012.2 - 0.0 - - 10 - - - -
22/11:00am 17.3 E 10 13 1012.4 - 0.0 - - 10 - - - -
22/10:30am 17.5 ENE 7 13 1012.5 - 0.0 - - 10 - - - -
22/10:00am 17.4 ENE 8 11 1012.3 - 0.0 - Partly cloudy 10 - - - -
22/09:30am 17.3 ENE 8 11 1012.4 - 0.0 - Partly cloudy 10 - - - -
22/09:00am 15.7 SSW 7 13 1012.2 - 0.2 - - 10 - - - -
22/08:30am 14.1 NNW 3 5 1012.3 - 0.2 - - 10 - - - -
22/08:28am 13.9 NNW 4 7 1012.3 - 0.2 - - 9 - - - -
22/08:03am 11.9 N 4 7 1012.2 - 0.2 - - 5 - - - -
22/08:00am 11.7 NNW 4 7 1012.2 - 0.2 - - 6 - - - -
22/07:43am 11.4 NNW 4 5 1012.0 - 0.2 - Partly cloudy 5 - - - -
22/07:30am 11.6 WNW 1 3 1011.9 - 0.2 - Partly cloudy 9 - - - -
22/07:00am 10.7 NW 3 4 1011.7 - 0.2 - Partly cloudy 8 - - - -
22/06:30am 10.6 NNW 4 5 1011.4 - 0.2 - Partly cloudy 5 - - - -
22/06:00am 11.2 NW 5 6 1011.1 - 0.2 - Cloudy 9 - - - -
22/05:30am 11.4 NW 4 6 1011.2 - 0.2 - Partly cloudy 10 - - - -
22/05:00am 11.0 WNW 3 5 1011.0 - 0.2 - Partly cloudy 6 - - - -
22/04:30am 11.2 NW 4 5 1011.1 - 0.2 - Cloudy 6 - - - -
22/04:00am 11.1 NNW 4 6 1011.3 - 0.2 - Cloudy 7 - - - -
22/03:30am 12.1 WSW 3 4 1011.4 - 0.0 - Partly cloudy 6 - - - -
22/03:00am 12.7 W 3 5 1011.3 - 0.0 - Cloudy 10 - - - -
22/02:49am 12.7 NW 4 6 1011.4 - 0.0 - Partly cloudy 10 - - - -
22/02:33am 12.7 NW 2 4 1011.7 - 0.0 - Partly cloudy 10 - - - -
22/02:30am 12.8 NW 2 4 1011.7 - 0.0 - Partly cloudy 10 - - - -
22/02:00am 12.8 W 3 5 1012.1 - 0.0 - Partly cloudy 10 - - - -
22/01:30am 12.8 NW 4 6 1012.2 - 0.0 - - 10 - - - -
22/01:00am 13.3 W 4 6 1012.5 - 0.0 - Partly cloudy 9 - - - -
22/12:50am 13.3 SW 4 6 1012.6 - 0.0 - Partly cloudy 7 - - - -
22/12:30am 13.4 WNW 4 7 1012.5 - 0.0 - Partly cloudy 7 - - - -
22/12:00am 13.0 W 4 6 1012.8 - 0.0 - Partly cloudy 10 - - - -
 
Date/Time
EDT
Temp
°C
Wind Pressure Rain since
9am
mm
Weather Cloud Vis
km
Sea
Height
m
Swell
Dir  Spd
kts
Gust
kts
hPa Trend Height
m
Period
s
Dir
21/11:30pm 13.1 WNW 2 5 1013.3 - 0.0 - Partly cloudy 10 - - - -
21/11:05pm 13.5 N 4 6 1013.2 - 0.0 - Partly cloudy 10 - - - -
21/11:00pm 13.1 NNW 1 4 1013.2 - 0.0 - Partly cloudy 10 - - - -
21/10:30pm 13.7 N 3 5 1013.1 - 0.0 - Partly cloudy 10 - - - -
21/10:24pm 14.0 NW 4 5 1013.1 - 0.0 - Partly cloudy 10 - - - -
21/10:00pm 15.2 SW 6 12 1013.2 - 0.0 - Partly cloudy 10 - - - -
21/09:30pm 14.9 WSW 4 7 1013.5 - 0.0 - Partly cloudy 10 - - - -
21/09:00pm 15.1 W 4 7 1013.5 - 0.0 - Cloudy 10 - - - -
21/08:30pm 15.4 CALM 0 0 1013.4 - 0.0 - Partly cloudy 10 - - - -
21/08:00pm 16.1 N 2 4 1013.2 - 0.0 - Partly cloudy 10 - - - -
21/07:30pm 16.5 CALM 0 0 1013.0 - 0.0 - Partly cloudy 10 - - - -
21/07:00pm 17.1 CALM 0 0 1013.1 - 0.0 - Partly cloudy 10 - - - -
21/06:30pm 17.3 SSE 3 5 1013.0 - 0.0 - Partly cloudy 10 - - - -
21/06:00pm 17.8 SE 3 7 1013.0 - 0.0 - Mostly cloudy 10 - - - -
21/05:30pm 17.7 SE 4 6 1013.3 - 0.0 - Partly cloudy 10 - - - -
21/05:00pm 18.0 E 5 7 1013.4 - 0.0 - Partly cloudy 10 - - - -
21/04:30pm 19.0 NE 8 10 1013.4 - 0.0 - Partly cloudy 10 - - - -
21/04:00pm 19.0 NNE 8 11 1013.6 - 0.0 - Partly cloudy 10 - - - -
21/03:30pm 19.0 NNE 9 13 1013.9 - 0.0 - Partly cloudy 10 - - - -
21/03:00pm 19.9 NNE 9 13 1014.3 - 0.0 - Partly cloudy 10 - - - -
21/02:30pm 18.2 NNE 9 15 1014.9 - 0.0 - Partly cloudy 10 - - - -
21/02:00pm 18.2 NE 9 13 1015.5 - 0.0 - Cloudy 10 - - - -
21/01:30pm 16.9 NE 11 15 1015.8 - 0.0 - Partly cloudy 10 - - - -
21/01:00pm 16.0 NE 10 14 1016.3 - 0.0 - Partly cloudy 10 - - - -
21/12:30pm 16.0 NNE 12 16 1016.7 - 0.0 - Partly cloudy 10 - - - -
21/12:00pm 16.2 NNE 11 17 1017.2 - 0.0 - Mostly cloudy 10 - - - -
21/11:30am 16.2 NNE 10 13 1017.7 - 0.0 - Partly cloudy 9 - - - -
21/11:00am 16.4 NNE 8 10 1018.0 - 0.0 - Partly cloudy 10 - - - -
21/10:30am 16.4 NNW 5 8 1018.6 - 0.0 - Partly cloudy 10 - - - -
21/10:00am 15.8 WNW 5 7 1018.9 - 0.0 - Cloudy 9 - - - -
21/09:58am 15.5 NW 5 7 1018.9 - 0.0 - Cloudy 10 - - - -
21/09:34am 14.3 WNW 4 7 1019.3 - 0.0 - Partly cloudy 2 - - - -
21/09:30am 13.9 WNW 4 7 1019.3 - 0.0 - Partly cloudy 2 - - - -
21/09:00am 12.4 NW 4 6 1019.5 - 0.0 Smoke Mostly cloudy 0.2 - - - -
21/08:30am 10.4 NW 5 7 1019.9 - 0.0 - Partly cloudy 2 - - - -
21/08:19am 9.8 NNW 6 7 1019.9 - 0.0 - Partly cloudy 3 - - - -
21/08:00am 8.9 NW 6 7 1019.9 - 0.0 - Partly cloudy 3 - - - -
21/07:58am 8.7 NW 6 7 1020.0 - 0.0 - Partly cloudy 3 - - - -
21/07:30am 8.0 NW 7 8 1020.1 - 0.0 - Partly cloudy 3 - - - -
21/07:00am 7.8 NNW 4 6 1020.3 - 0.0 - Partly cloudy 2 - - - -
21/06:54am 7.7 NNW 5 6 1020.3 - 0.0 - Partly cloudy 2 - - - -
21/06:30am 7.5 NNW 6 7 1020.1 - 0.0 - - 1 - - - -
21/06:00am 7.6 NW 6 8 1020.2 - 0.0 - - 2 - - - -
21/05:30am 7.6 NW 7 8 1020.2 - 0.0 - Partly cloudy 2 - - - -
21/05:00am 7.7 NW 6 7 1020.4 - 0.0 - Partly cloudy 2 - - - -
21/04:30am 7.7 NW 5 7 1020.5 - 0.0 - Cloudy 2 - - - -
21/04:00am 7.5 WNW 4 5 1020.7 - 0.0 - Cloudy 2 - - - -
21/03:30am 7.3 WNW 4 5 1020.7 - 0.0 - Partly cloudy 4 - - - -
21/03:00am 7.2 NW 5 6 1020.9 - 0.0 - Mostly clear 5 - - - -
21/02:52am 7.3 NW 5 6 1021.0 - 0.0 - - 5 - - - -
21/02:30am 7.5 WNW 4 4 1021.1 - 0.0 - - 7 - - - -
21/02:00am 8.0 NW 4 5 1021.5 - 0.0 - - 10 - - - -
21/01:30am 8.3 NW 6 7 1021.7 - 0.0 - - 10 - - - -
21/01:00am 9.0 CALM 0 0 1022.1 - 0.0 - - 10 - - - -
21/12:30am 9.2 NW 4 5 1022.1 - 0.0 - - 10 - - - -
21/12:00am 8.9 NW 5 6 1022.2 - 0.0 - - 10 - - - -
 
Date/Time
EDT
Temp
°C
Wind Pressure Rain since
9am
mm
Weather Cloud Vis
km
Sea
Height
m
Swell
Dir  Spd
kts
Gust
kts
hPa Trend Height
m
Period
s
Dir
20/11:30pm 9.3 NW 5 6 1022.4 - 0.0 - - 10 - - - -
20/11:00pm 9.3 NNW 5 5 1022.7 - 0.0 - - 10 - - - -
20/10:30pm 10.3 WNW 3 4 1022.8 - 0.0 - Partly cloudy 10 - - - -
20/10:00pm 10.9 SSE 3 4 1022.7 - 0.0 - Partly cloudy 10 - - - -
20/09:30pm 11.2 SSE 4 6 1022.8 - 0.0 - Partly cloudy 10 - - - -
20/09:00pm 11.6 SSE 4 5 1022.8 - 0.0 - - 10 - - - -
20/08:30pm 11.6 SSE 4 5 1022.7 - 0.0 - - 10 - - - -
20/08:00pm 12.0 S 4 6 1022.5 - 0.0 - - 10 - - - -
20/07:30pm 12.8 S 6 9 1022.2 - 0.0 - - 10 - - - -
20/07:00pm 13.5 SSE 5 9 1021.8 - 0.0 - - 10 - - - -
20/06:30pm 14.5 SSE 6 9 1021.4 - 0.0 - - 10 - - - -
20/06:00pm 15.7 ESE 7 10 1021.2 - 0.0 - - 10 - - - -
20/05:30pm 16.5 E 6 10 1021.0 - 0.0 - - 10 - - - -
20/05:00pm 16.6 ENE 8 11 1020.7 - 0.0 - - 10 - - - -
20/04:30pm 16.0 NE 11 15 1020.6 - 0.0 - Partly cloudy 10 - - - -
20/04:00pm 18.3 NNE 10 13 1020.2 - 0.0 - Partly cloudy 10 - - - -
20/03:30pm 17.7 NE 9 13 1020.1 - 0.0 - - 10 - - - -
20/03:00pm 16.9 N 10 14 1020.2 - 0.0 - - 10 - - - -
20/02:30pm 18.0 N 8 12 1020.1 - 0.0 - Partly cloudy 10 - - - -
20/02:00pm 18.1 N 9 11 1020.2 - 0.0 - - 10 - - - -
20/01:30pm 20.0 SSW 7 12 1020.2 - 0.0 - - 10 - - - -
20/01:00pm 19.3 SSW 9 17 1020.0 - 0.0 - - 10 - - - -
20/12:30pm 18.9 S 10 18 1020.1 - 0.0 - - 10 - - - -
20/12:00pm 17.9 SSW 7 14 1020.4 - 0.0 - - 10 - - - -
20/11:30am 17.5 S 13 20 1020.3 - 0.0 - - 10 - - - -
20/11:00am 17.6 SSW 10 19 1020.4 - 0.0 - - 10 - - - -
20/10:30am 15.6 NNW 5 8 1020.4 - 0.0 - Partly cloudy 10 - - - -
20/10:00am 14.5 WNW 4 7 1020.3 - 0.0 - - 10 - - - -

Other Formats:

Comma delimited format used in spreadsheet applications
http://www.bom.gov.au/fwo/IDT60701/IDT60701.95981.axf

JavaScript Object Notation format (JSON) in row-major order
http://www.bom.gov.au/fwo/IDT60701/IDT60701.95981.json